Time;durP1;ratioP1;P1;durP2;ratioP2;P2;SDS_P1;SDS_P2;PMS_P1;PMS_P2;Temp;Humidity;BMP_temperature;BMP_pressure;BME280_temperature;BME280_humidity;BME280_pressure;Samples;Min_cycle;Max_cycle;Signal;HPM_P1;HPM_P2
2023/12/20 00:03:28;;;;;;;0.20;0.20;;;10.20;99.90;;;;;;10584046;27;20054;-64
2023/12/20 00:08:31;;;;;;;0.10;0.10;;;9.40;99.90;;;;;;10584326;27;20077;-64
2023/12/20 00:13:34;;;;;;;0.20;0.20;;;9.30;99.90;;;;;;10583977;27;20509;-63
2023/12/20 00:18:36;;;;;;;0.30;0.30;;;9.90;99.90;;;;;;10580917;27;20046;-63
2023/12/20 00:23:38;;;;;;;0.60;0.60;;;9.30;99.90;;;;;;10581068;27;20058;-63
2023/12/20 00:28:42;;;;;;;0.80;0.80;;;9.40;99.90;;;;;;10582993;27;20394;-63
2023/12/20 00:33:46;;;;;;;0.20;0.20;;;9.80;99.90;;;;;;10589159;27;20182;-63
2023/12/20 00:38:49;;;;;;;0.22;0.22;;;9.90;99.90;;;;;;10590809;27;20139;-64
2023/12/20 00:43:53;;;;;;;0.10;0.10;;;9.20;99.90;;;;;;10587240;27;20073;-62
2023/12/20 00:48:55;;;;;;;0.10;0.10;;;9.10;99.90;;;;;;10586176;27;20094;-64
2023/12/20 00:53:57;;;;;;;0.88;0.88;;;9.50;99.90;;;;;;10589157;27;20062;-63
2023/12/20 00:59:00;;;;;;;0.20;0.20;;;10.20;99.90;;;;;;10593253;27;20054;-64
2023/12/20 01:04:03;;;;;;;26.58;3.33;;;9.90;99.90;;;;;;10590475;27;20051;-63
2023/12/20 01:09:07;;;;;;;43.05;3.92;;;9.60;99.90;;;;;;10591246;27;20043;-63
2023/12/20 01:14:11;;;;;;;25.15;4.20;;;9.10;99.90;;;;;;10592607;27;20166;-63
2023/12/20 01:19:14;;;;;;;18.42;3.30;;;9.00;99.90;;;;;;10590869;27;20046;-63
2023/12/20 01:24:16;;;;;;;25.55;4.10;;;9.60;99.90;;;;;;10590689;27;20055;-63
2023/12/20 01:29:20;;;;;;;24.10;4.30;;;9.30;99.90;;;;;;10590189;27;20126;-62
2023/12/20 01:34:22;;;;;;;30.25;4.25;;;9.30;99.90;;;;;;10591739;27;20051;-64
2023/12/20 01:39:24;;;;;;;34.80;6.32;;;9.30;99.90;;;;;;10591528;27;21208;-64
2023/12/20 01:44:27;;;;;;;21.88;3.10;;;8.90;99.90;;;;;;10588652;27;20051;-63
2023/12/20 01:49:29;;;;;;;23.75;3.30;;;9.10;99.90;;;;;;10590144;27;20047;-63
2023/12/20 01:54:33;;;;;;;24.13;4.43;;;9.70;99.90;;;;;;10587849;27;20043;-64
2023/12/20 01:59:36;;;;;;;21.02;4.60;;;9.80;99.90;;;;;;10589504;27;20054;-63
2023/12/20 02:04:39;;;;;;;27.60;3.65;;;9.20;99.90;;;;;;10585979;27;20048;-64
2023/12/20 02:09:41;;;;;;;23.23;3.17;;;9.10;99.90;;;;;;10586416;27;20054;-64
2023/12/20 02:14:44;;;;;;;27.87;4.27;;;9.30;99.90;;;;;;10587776;27;20126;-64
2023/12/20 02:19:47;;;;;;;36.30;4.50;;;9.90;99.90;;;;;;10568261;27;20709;-63
2023/12/20 02:24:50;;;;;;;23.73;3.03;;;9.80;99.90;;;;;;10585391;27;20047;-65
2023/12/20 02:29:53;;;;;;;28.23;4.20;;;9.90;99.90;;;;;;10587473;27;20039;-63
2023/12/20 02:34:55;;;;;;;44.30;4.87;;;9.80;99.90;;;;;;10585628;27;20054;-63
2023/12/20 02:39:59;;;;;;;11.40;2.50;;;9.50;99.90;;;;;;10584892;27;22441;-63
2023/12/20 02:45:00;;;;;;;17.52;1.92;;;9.50;99.90;;;;;;10585978;27;20070;-62
2023/12/20 02:50:03;;;;;;;51.10;5.53;;;9.10;99.90;;;;;;10588431;27;20047;-64
2023/12/20 02:55:07;;;;;;;21.00;4.87;;;8.80;99.90;;;;;;10584172;27;20043;-63
2023/12/20 03:00:10;;;;;;;35.80;5.05;;;9.40;99.90;;;;;;10585383;27;20572;-65
2023/12/20 03:05:12;;;;;;;;;;;9.30;99.90;;;;;;10585184;27;20089;-64
2023/12/20 03:10:16;;;;;;;34.90;5.93;;;8.90;99.90;;;;;;10586915;27;19927;-64
2023/12/20 03:15:18;;;;;;;29.98;5.82;;;8.90;99.90;;;;;;10585031;27;20054;-63
2023/12/20 03:20:20;;;;;;;38.72;4.18;;;9.00;99.90;;;;;;10588104;27;20043;-64
2023/12/20 03:25:23;;;;;;;31.10;4.90;;;8.70;99.90;;;;;;10580113;27;20062;-63
2023/12/20 03:30:25;;;;;;;;;;;8.70;99.90;;;;;;10582238;27;20075;-63
2023/12/20 03:35:27;;;;;;;21.23;3.70;;;9.40;99.90;;;;;;10582265;27;20637;-65
2023/12/20 03:40:30;;;;;;;25.13;5.60;;;8.90;99.90;;;;;;10579935;27;20061;-63
2023/12/20 03:45:32;;;;;;;;;;;8.80;99.90;;;;;;10581819;27;21090;-62
2023/12/20 03:50:34;;;;;;;28.13;5.63;;;8.80;99.90;;;;;;10580442;27;19923;-63
2023/12/20 03:55:40;;;;;;;23.90;3.10;;;8.60;99.90;;;;;;10577437;27;20047;-63
2023/12/20 04:15:31;;;;;;;10.90;2.30;;;8.90;99.90;;;;;;10579880;27;20112;-64
2023/12/20 04:20:33;;;;;;;40.58;6.70;;;8.80;99.90;;;;;;10595129;27;20668;-65
2023/12/20 04:25:36;;;;;;;41.78;6.30;;;8.80;99.90;;;;;;10596817;27;20051;-64
2023/12/20 04:30:39;;;;;;;29.52;5.85;;;8.80;99.90;;;;;;10589156;27;20048;-64
2023/12/20 04:35:42;;;;;;;32.63;6.93;;;8.30;99.90;;;;;;10591882;27;20086;-63
2023/12/20 04:40:44;;;;;;;36.35;6.22;;;8.50;99.90;;;;;;10589155;27;20362;-64
2023/12/20 04:45:48;;;;;;;25.35;4.72;;;8.70;99.90;;;;;;10580178;27;20051;-62
2023/12/20 04:50:49;;;;;;;;;;;8.50;99.90;;;;;;10590954;27;20136;-63
2023/12/20 04:55:51;;;;;;;46.60;8.48;;;8.90;99.90;;;;;;10593284;27;19931;-63
2023/12/20 05:00:55;;;;;;;35.20;5.03;;;8.40;99.90;;;;;;10583673;27;20077;-63
2023/12/20 05:05:57;;;;;;;38.20;5.53;;;8.40;99.90;;;;;;10598555;27;20062;-63
2023/12/20 05:10:59;;;;;;;37.87;5.70;;;8.20;99.90;;;;;;10587497;27;20498;-63
2023/12/20 05:16:02;;;;;;;39.55;7.45;;;8.80;99.90;;;;;;10580860;27;20108;-63
2023/12/20 05:21:05;;;;;;;32.47;6.20;;;8.60;99.90;;;;;;10590528;27;20051;-64
2023/12/20 05:26:07;;;;;;;35.47;5.90;;;8.90;99.90;;;;;;10568097;27;20055;-63
2023/12/20 05:31:10;;;;;;;30.50;5.05;;;8.80;99.90;;;;;;10564551;27;20054;-64
2023/12/20 05:36:14;;;;;;;20.75;3.35;;;8.80;99.90;;;;;;10559764;27;20043;-64
2023/12/20 05:41:16;;;;;;;34.40;4.82;;;8.70;99.90;;;;;;10563632;27;20039;-64
2023/12/20 05:46:21;;;;;;;24.42;4.88;;;9.20;99.90;;;;;;10558821;27;20195;-64
2023/12/20 05:51:23;;;;;;;36.42;6.35;;;9.00;99.90;;;;;;10551970;27;20035;-64
2023/12/20 05:56:25;;;;;;;37.15;6.45;;;8.60;99.90;;;;;;10562723;27;20043;-64
2023/12/20 06:01:28;;;;;;;34.92;6.07;;;8.50;99.90;;;;;;10562207;27;20123;-63
2023/12/20 06:06:30;;;;;;;;;;;8.80;99.90;;;;;;10567501;27;20363;-64
2023/12/20 06:11:32;;;;;;;41.15;8.00;;;9.10;99.90;;;;;;10553288;27;19923;-64
2023/12/20 06:16:35;;;;;;;27.15;5.43;;;9.20;99.90;;;;;;10558471;27;20208;-63
2023/12/20 06:21:37;;;;;;;;;;;9.10;99.90;;;;;;10556294;27;20768;-64
2023/12/20 06:26:39;;;;;;;33.70;6.45;;;8.90;99.90;;;;;;10561063;27;19928;-64
2023/12/20 06:31:42;;;;;;;40.35;6.78;;;8.80;99.90;;;;;;10559414;27;20064;-63
2023/12/20 06:36:44;;;;;;;21.40;5.13;;;8.90;99.90;;;;;;10555089;27;20418;-64
2023/12/20 06:41:46;;;;;;;23.30;3.58;;;9.10;99.90;;;;;;10561831;27;20055;-63
2023/12/20 06:46:49;;;;;;;29.77;5.90;;;9.90;99.90;;;;;;10553088;27;20521;-63
2023/12/20 06:51:53;;;;;;;32.35;5.97;;;9.20;99.90;;;;;;10558647;27;20590;-63
2023/12/20 06:56:54;;;;;;;42.50;7.15;;;9.00;99.90;;;;;;10558333;27;20145;-63
2023/12/20 07:01:58;;;;;;;30.13;5.30;;;8.50;99.90;;;;;;10555610;27;20036;-64
2023/12/20 07:07:00;;;;;;;;;;;8.90;99.90;;;;;;10551665;27;20047;-64
2023/12/20 07:12:02;;;;;;;28.13;4.78;;;9.00;99.90;;;;;;10559005;27;19931;-63
2023/12/20 07:17:11;;;;;;;41.97;7.97;;;9.00;99.90;;;;;;10554507;27;20044;-63
2023/12/20 07:22:13;;;;;;;32.70;4.72;;;8.70;99.90;;;;;;10546391;27;20066;-63
2023/12/20 07:27:18;;;;;;;39.93;7.90;;;8.90;99.90;;;;;;10548421;27;20058;-63
2023/12/20 07:32:21;;;;;;;26.50;3.25;;;8.70;99.90;;;;;;10560130;27;20050;-64
2023/12/20 07:37:24;;;;;;;33.90;6.45;;;8.70;99.90;;;;;;10548569;27;20133;-63
2023/12/20 07:42:26;;;;;;;36.85;5.75;;;8.70;99.90;;;;;;10563653;27;20079;-64
2023/12/20 07:47:31;;;;;;;40.70;7.60;;;8.90;99.90;;;;;;10553013;27;20043;-65
2023/12/20 07:52:33;;;;;;;31.70;6.35;;;8.90;99.90;;;;;;10547669;27;20039;-65
2023/12/20 07:57:35;;;;;;;33.65;6.65;;;8.70;99.90;;;;;;10547188;27;20058;-64
2023/12/20 08:02:41;;;;;;;30.02;5.95;;;9.10;99.90;;;;;;10549048;27;20054;-64
2023/12/20 08:07:43;;;;;;;38.50;7.63;;;9.10;99.90;;;;;;10551246;27;20061;-64
2023/12/20 08:12:45;;;;;;;42.53;5.63;;;9.10;99.90;;;;;;10551915;28;20430;-64
2023/12/20 08:17:50;;;;;;;34.75;6.07;;;9.10;99.90;;;;;;10546805;28;20155;-64
2023/12/20 08:22:52;;;;;;;30.85;5.82;;;9.20;99.90;;;;;;10547416;28;20055;-64
2023/12/20 08:27:54;;;;;;;26.73;4.35;;;9.10;99.90;;;;;;10551731;28;20830;-63
2023/12/20 08:33:00;;;;;;;25.50;4.40;;;9.50;99.90;;;;;;10564411;28;20138;-64
2023/12/20 08:38:02;;;;;;;43.00;5.65;;;9.20;99.90;;;;;;10570434;28;20052;-64
2023/12/20 08:43:04;;;;;;;25.75;4.20;;;9.30;99.90;;;;;;10557094;28;20044;-65
2023/12/20 08:48:08;;;;;;;26.07;4.80;;;9.40;99.90;;;;;;10547829;28;20047;-64
2023/12/20 08:53:10;;;;;;;27.58;5.85;;;9.60;99.90;;;;;;10547740;27;20475;-63
2023/12/20 08:58:13;;;;;;;24.63;3.97;;;9.50;99.90;;;;;;10553976;27;20047;-63
2023/12/20 09:03:16;;;;;;;29.73;5.35;;;9.70;99.90;;;;;;10552893;27;20054;-62
2023/12/20 09:08:18;;;;;;;38.08;7.15;;;9.70;99.90;;;;;;10558274;27;20589;-64
2023/12/20 09:13:27;;;;;;;27.60;5.43;;;9.80;99.90;;;;;;10554924;27;20135;-68
2023/12/20 09:18:31;;;;;;;33.10;5.68;;;9.80;99.90;;;;;;10552333;27;20150;-64
2023/12/20 09:23:33;;;;;;;62.58;6.35;;;9.60;99.90;;;;;;10559366;27;20748;-64
2023/12/20 09:28:36;;;;;;;29.77;3.47;;;9.50;99.90;;;;;;10559192;27;20042;-63
2023/12/20 09:33:40;;;;;;;31.95;6.18;;;9.40;99.90;;;;;;10559010;27;20225;-64
2023/12/20 09:38:42;;;;;;;26.27;4.40;;;9.20;99.90;;;;;;10555081;27;20052;-64
2023/12/20 09:43:44;;;;;;;38.47;5.95;;;9.50;99.90;;;;;;10558343;27;20053;-63
2023/12/20 09:48:48;;;;;;;40.00;5.72;;;9.50;99.90;;;;;;10553119;27;20062;-63
2023/12/20 09:53:52;;;;;;;20.98;4.15;;;9.70;99.90;;;;;;10559651;27;20055;-64
2023/12/20 09:58:54;;;;;;;35.55;4.10;;;10.10;99.90;;;;;;10551167;27;20052;-62
2023/12/20 10:04:01;;;;;;;20.55;3.42;;;9.50;99.90;;;;;;10550428;27;20051;-63
2023/12/20 10:09:05;;;;;;;12.43;2.90;;;9.60;99.90;;;;;;10559540;27;20130;-63
2023/12/20 10:14:08;;;;;;;31.98;5.30;;;10.10;99.90;;;;;;10560794;27;20054;-65
2023/12/20 10:19:11;;;;;;;23.13;3.22;;;10.00;99.90;;;;;;10561013;27;20039;-63
2023/12/20 10:24:18;;;;;;;30.08;4.20;;;10.60;99.90;;;;;;10560300;27;20075;-64
2023/12/20 10:29:20;;;;;;;31.45;3.97;;;10.70;99.90;;;;;;10562848;27;20058;-64
2023/12/20 10:34:24;;;;;;;24.25;3.92;;;10.20;99.90;;;;;;10557379;27;20047;-63
2023/12/20 10:39:29;;;;;;;26.50;5.00;;;10.30;99.90;;;;;;10556471;27;20094;-63
2023/12/20 10:44:31;;;;;;;34.33;5.07;;;10.00;99.90;;;;;;10558280;27;20046;-63
2023/12/20 10:49:38;;;;;;;28.33;4.07;;;10.40;99.90;;;;;;10546960;27;20154;-65
2023/12/20 10:54:41;;;;;;;31.75;4.50;;;10.30;99.90;;;;;;10547565;27;20043;-64
2023/12/20 10:59:46;;;;;;;35.38;6.45;;;10.50;99.90;;;;;;10558381;27;20058;-64
2023/12/20 11:04:58;;;;;;;30.85;5.00;;;10.30;99.90;;;;;;10548623;27;20086;-63
2023/12/20 11:10:05;;;;;;;20.13;5.10;;;10.90;99.90;;;;;;10552263;27;20132;-64
2023/12/20 11:15:08;;;;;;;30.75;5.38;;;10.80;99.90;;;;;;10547274;27;20050;-67
2023/12/20 11:20:13;;;;;;;25.13;4.50;;;10.40;99.90;;;;;;10552892;27;20044;-64
2023/12/20 11:25:15;;;;;;;31.10;3.78;;;11.20;99.90;;;;;;10549826;27;20047;-62
2023/12/20 11:30:17;;;;;;;17.77;3.20;;;11.00;99.90;;;;;;10554383;27;20521;-65
2023/12/20 11:35:21;;;;;;;24.60;5.20;;;10.40;99.90;;;;;;10545917;27;20055;-63
2023/12/20 11:40:25;;;;;;;38.40;5.68;;;10.70;99.90;;;;;;10551189;27;20964;-63
2023/12/20 11:45:27;;;;;;;27.77;3.15;;;11.00;99.90;;;;;;10550784;27;20048;-64
2023/12/20 11:50:32;;;;;;;38.87;4.60;;;10.70;99.90;;;;;;10557709;27;20355;-63
2023/12/20 11:55:36;;;;;;;28.52;4.72;;;10.70;99.90;;;;;;10542182;27;20106;-64
2023/12/20 12:00:38;;;;;;;26.35;5.43;;;10.90;99.90;;;;;;10546407;27;20414;-65
2023/12/20 12:05:42;;;;;;;25.07;4.70;;;10.50;99.90;;;;;;10544097;27;20092;-64
2023/12/20 12:10:45;;;;;;;26.50;3.08;;;11.20;99.90;;;;;;10548384;27;20460;-63
2023/12/20 12:15:50;;;;;;;23.55;3.70;;;10.80;99.90;;;;;;10547966;28;20047;-64
2023/12/20 12:21:02;;;;;;;28.60;5.25;;;11.20;99.90;;;;;;10558835;28;20047;-64
2023/12/20 12:26:05;;;;;;;29.50;2.77;;;10.70;99.90;;;;;;10544710;27;20151;-64
2023/12/20 12:31:07;;;;;;;;;;;11.20;99.90;;;;;;10556003;28;20500;-64
2023/12/20 12:36:11;;;;;;;22.52;3.40;;;11.20;99.90;;;;;;10560938;27;19919;-63
2023/12/20 12:41:15;;;;;;;26.98;4.63;;;11.30;99.90;;;;;;10566280;27;20055;-65
2023/12/20 12:46:17;;;;;;;24.48;2.92;;;11.10;99.90;;;;;;10555537;27;20043;-64
2023/12/20 12:51:20;;;;;;;26.00;5.00;;;11.20;99.90;;;;;;10557503;27;20066;-64
2023/12/20 12:56:23;;;;;;;26.92;3.80;;;10.80;99.90;;;;;;10558191;27;20445;-64
2023/12/20 13:01:33;;;;;;;23.17;3.42;;;11.40;99.90;;;;;;10560658;27;20043;-64
2023/12/20 13:06:36;;;;;;;33.28;5.40;;;10.80;99.90;;;;;;10556686;27;20475;-64
2023/12/20 13:11:38;;;;;;;23.02;4.65;;;10.70;99.90;;;;;;10552772;27;20066;-65
2023/12/20 13:16:45;;;;;;;30.23;5.18;;;10.50;99.90;;;;;;10555891;27;20085;-64
2023/12/20 13:21:49;;;;;;;29.35;4.47;;;10.50;99.90;;;;;;10557434;27;20066;-65
2023/12/20 13:26:52;;;;;;;27.25;3.40;;;10.50;99.90;;;;;;10553171;27;20046;-65
2023/12/20 13:31:54;;;;;;;38.07;5.37;;;10.20;99.90;;;;;;10554685;27;20168;-65
2023/12/20 13:36:58;;;;;;;32.78;4.05;;;10.50;99.90;;;;;;10556700;27;20049;-64
2023/12/20 13:42:00;;;;;;;28.50;3.63;;;10.40;99.90;;;;;;10558472;27;20047;-65
2023/12/20 13:47:03;;;;;;;30.13;4.93;;;10.60;99.90;;;;;;10549872;27;20071;-64
2023/12/20 13:52:07;;;;;;;;;;;10.50;99.90;;;;;;10562355;27;20052;-65
2023/12/20 13:57:09;;;;;;;33.83;6.20;;;10.80;99.90;;;;;;10558934;27;20046;-66
2023/12/20 14:02:11;;;;;;;28.50;5.90;;;10.50;99.90;;;;;;10554847;27;20057;-66
2023/12/20 14:07:15;;;;;;;37.15;6.03;;;10.50;99.90;;;;;;10560930;27;20165;-65
2023/12/20 14:12:17;;;;;;;38.47;6.28;;;10.50;99.90;;;;;;10555089;27;20400;-64
2023/12/20 14:17:20;;;;;;;25.00;4.60;;;10.20;99.90;;;;;;10554100;27;20074;-64
2023/12/20 14:22:24;;;;;;;44.33;7.25;;;10.70;99.90;;;;;;10554371;27;20142;-65
2023/12/20 14:27:27;;;;;;;16.83;2.65;;;10.10;99.90;;;;;;10555756;27;20078;-65
2023/12/20 14:32:29;;;;;;;37.13;5.78;;;10.40;99.90;;;;;;10556983;27;20111;-63
2023/12/20 14:37:33;;;;;;;32.45;6.15;;;10.50;99.90;;;;;;10554995;27;20062;-65
2023/12/20 14:42:35;;;;;;;23.25;3.75;;;10.30;99.90;;;;;;10555462;27;20059;-65
2023/12/20 14:47:39;;;;;;;24.35;4.25;;;10.90;99.90;;;;;;10558701;27;20192;-65
2023/12/20 14:52:42;;;;;;;31.63;6.68;;;11.30;99.90;;;;;;10550451;27;20074;-65
2023/12/20 14:57:44;;;;;;;31.85;4.95;;;10.20;99.90;;;;;;10556610;27;20056;-65
2023/12/20 15:02:50;;;;;;;28.75;5.35;;;10.30;99.90;;;;;;10553886;27;20051;-65
2023/12/20 15:07:53;;;;;;;19.27;3.25;;;10.60;99.90;;;;;;10554266;27;20048;-64
2023/12/20 15:12:55;;;;;;;22.10;3.58;;;10.20;99.90;;;;;;10549178;27;20048;-64
2023/12/20 15:17:57;;;;;;;26.42;5.00;;;10.00;99.90;;;;;;10552757;27;20047;-64
2023/12/20 15:23:05;;;;;;;32.22;5.40;;;10.10;99.90;;;;;;10556897;27;20086;-64
2023/12/20 15:28:07;;;;;;;19.42;3.13;;;9.90;99.90;;;;;;10553046;27;20205;-65
2023/12/20 15:33:09;;;;;;;32.33;5.93;;;9.70;99.90;;;;;;10550320;27;20821;-64
2023/12/20 15:38:13;;;;;;;28.02;4.82;;;9.70;99.90;;;;;;10553779;27;20050;-62
2023/12/20 15:43:15;;;;;;;30.05;4.85;;;9.40;99.90;;;;;;10552933;27;20047;-66
2023/12/20 15:48:20;;;;;;;32.40;4.95;;;9.50;99.90;;;;;;10556953;27;20047;-64
2023/12/20 15:53:23;;;;;;;24.90;3.63;;;9.70;99.90;;;;;;10555645;27;20057;-63
2023/12/20 15:58:26;;;;;;;10.98;4.03;;;10.00;99.90;;;;;;10550617;27;20127;-65
2023/12/20 16:03:28;;;;;;;0.52;0.52;;;9.60;99.90;;;;;;10552337;27;20176;-65
2023/12/20 16:08:32;;;;;;;0.20;0.20;;;9.50;99.90;;;;;;10551265;27;20059;-65
2023/12/20 16:13:34;;;;;;;0.10;0.10;;;9.50;99.90;;;;;;10549739;27;20829;-65
2023/12/20 16:18:37;;;;;;;0.15;0.15;;;9.60;99.90;;;;;;10553908;28;20960;-66
2023/12/20 16:23:40;;;;;;;0.20;0.20;;;9.70;99.90;;;;;;10550252;27;20221;-64
2023/12/20 16:28:42;;;;;;;0.45;0.45;;;10.30;99.90;;;;;;10558137;28;20051;-65
2023/12/20 16:33:46;;;;;;;0.38;0.38;;;10.30;99.90;;;;;;10552742;28;20062;-65
2023/12/20 16:38:49;;;;;;;0.10;0.10;;;9.70;99.90;;;;;;10548054;28;20831;-65
2023/12/20 16:43:51;;;;;;;0.22;0.22;;;9.60;99.90;;;;;;10557395;28;20676;-64
2023/12/20 16:48:53;;;;;;;0.15;0.15;;;9.80;99.90;;;;;;10545606;28;20793;-69
2023/12/20 16:53:57;;;;;;;0.85;0.43;;;9.90;99.90;;;;;;10553633;28;20066;-66
2023/12/20 16:58:59;;;;;;;0.10;0.10;;;10.10;99.90;;;;;;10553293;28;20083;-66
2023/12/20 17:04:01;;;;;;;2.05;1.27;;;9.60;99.90;;;;;;10552410;28;20063;-65
2023/12/20 17:09:05;;;;;;;0.10;0.10;;;9.70;99.90;;;;;;10550841;28;21003;-66
2023/12/20 17:14:08;;;;;;;0.10;0.10;;;9.60;99.90;;;;;;10542912;28;20052;-66
2023/12/20 17:19:11;;;;;;;0.10;0.10;;;10.10;99.90;;;;;;10544392;27;21064;-66
2023/12/20 17:24:14;;;;;;;0.10;0.10;;;9.90;99.90;;;;;;10559718;27;20131;-67
2023/12/20 17:29:16;;;;;;;17.05;4.60;;;10.70;99.90;;;;;;10562406;27;20050;-66
2023/12/20 17:34:19;;;;;;;20.48;3.88;;;10.30;99.90;;;;;;10551561;27;20073;-66
2023/12/20 17:39:22;;;;;;;21.70;4.03;;;10.10;99.90;;;;;;10553801;27;20058;-65
2023/12/20 17:44:24;;;;;;;40.30;5.43;;;10.10;99.90;;;;;;10546319;27;20047;-66
2023/12/20 17:49:26;;;;;;;37.60;5.80;;;10.30;99.90;;;;;;10560133;27;20316;-66
2023/12/20 17:54:30;;;;;;;37.42;4.85;;;10.50;99.90;;;;;;10555624;27;20090;-67
2023/12/20 17:59:32;;;;;;;38.70;5.53;;;10.20;99.90;;;;;;10561241;27;20133;-64
2023/12/20 18:04:34;;;;;;;27.33;3.97;;;9.90;99.90;;;;;;10557947;27;20430;-64
2023/12/20 18:09:37;;;;;;;35.97;5.40;;;10.00;99.90;;;;;;10555225;27;20197;-67
2023/12/20 18:14:39;;;;;;;24.17;3.88;;;10.10;99.90;;;;;;10559515;27;20058;-65
2023/12/20 18:19:41;;;;;;;37.65;7.30;;;9.90;99.90;;;;;;10564153;27;20100;-68
2023/12/20 18:24:45;;;;;;;38.38;6.05;;;9.90;99.90;;;;;;10552632;27;20467;-66
2023/12/20 18:29:47;;;;;;;42.20;5.53;;;9.90;99.90;;;;;;10564933;27;20184;-64
2023/12/20 18:34:49;;;;;;;36.13;4.22;;;9.90;99.90;;;;;;10560903;27;20082;-63
2023/12/20 18:39:52;;;;;;;42.05;6.38;;;9.90;99.90;;;;;;10574079;27;20058;-69
2023/12/20 18:44:55;;;;;;;34.30;6.50;;;10.10;99.90;;;;;;10560360;27;20112;-74
2023/12/20 18:49:57;;;;;;;;;;;10.40;99.90;;;;;;10545062;27;20051;-68
2023/12/20 18:55:01;;;;;;;27.17;4.88;;;9.90;99.90;;;;;;10549093;27;19931;-70
2023/12/20 19:00:05;;;;;;;26.67;3.45;;;10.20;99.90;;;;;;10566855;27;20592;-69
2023/12/20 19:05:07;;;;;;;22.90;5.47;;;10.20;99.90;;;;;;10556830;27;20137;-70
2023/12/20 19:10:12;;;;;;;28.10;4.93;;;10.30;99.90;;;;;;10564913;27;20063;-72
2023/12/20 19:15:14;;;;;;;30.63;5.15;;;10.30;99.90;;;;;;10551569;27;22086;-71
2023/12/20 19:20:18;;;;;;;20.77;4.10;;;10.30;99.90;;;;;;10552407;27;20051;-71
2023/12/20 19:25:22;;;;;;;29.95;5.63;;;10.30;99.90;;;;;;10559196;27;20139;-69
2023/12/20 19:30:24;;;;;;;22.73;4.32;;;10.20;99.90;;;;;;10560830;27;20134;-69
2023/12/20 19:35:29;;;;;;;19.23;2.85;;;10.40;99.90;;;;;;10546532;27;20044;-70
2023/12/20 19:40:33;;;;;;;24.65;4.32;;;10.20;99.90;;;;;;10549095;27;20058;-72
2023/12/20 19:45:35;;;;;;;19.15;4.65;;;10.60;99.90;;;;;;10538275;27;20047;-73
2023/12/20 19:50:37;;;;;;;22.88;4.07;;;10.30;99.90;;;;;;10554575;27;20494;-71
2023/12/20 19:55:41;;;;;;;21.15;5.03;;;10.40;99.90;;;;;;10554785;27;20043;-73
2023/12/20 20:00:43;;;;;;;17.63;4.95;;;10.60;99.90;;;;;;10549190;27;20056;-70
2023/12/20 20:05:45;;;;;;;19.77;3.83;;;10.40;99.90;;;;;;10553323;27;20079;-71
2023/12/20 20:10:49;;;;;;;19.23;3.97;;;10.40;99.90;;;;;;10551408;27;20048;-73
2023/12/20 20:15:51;;;;;;;18.15;4.53;;;10.30;99.90;;;;;;10542586;27;20042;-74
2023/12/20 20:20:53;;;;;;;26.70;5.38;;;10.30;99.90;;;;;;10552794;28;20113;-73
2023/12/20 20:25:57;;;;;;;17.88;4.35;;;10.30;99.90;;;;;;10542056;28;20031;-74
2023/12/20 20:30:58;;;;;;;30.35;6.22;;;10.50;99.90;;;;;;10548755;28;20063;-72
2023/12/20 20:36:03;;;;;;;34.78;5.43;;;10.50;99.90;;;;;;10548408;27;20059;-73
2023/12/20 20:41:07;;;;;;;17.77;4.47;;;10.40;99.90;;;;;;10545093;27;20044;-74
2023/12/20 20:46:10;;;;;;;22.70;4.78;;;10.40;99.90;;;;;;10544371;27;20579;-73
2023/12/20 20:51:13;;;;;;;25.15;5.32;;;10.70;99.90;;;;;;10549023;28;20043;-73
2023/12/20 20:56:20;;;;;;;24.37;5.73;;;10.60;99.90;;;;;;10551894;27;20050;-73
2023/12/20 21:01:26;;;;;;;16.60;3.67;;;10.50;99.90;;;;;;10556770;27;20789;-73
2023/12/20 21:06:29;;;;;;;26.77;4.45;;;10.60;99.90;;;;;;10558250;27;20052;-71
2023/12/20 21:11:33;;;;;;;19.92;3.67;;;10.60;99.90;;;;;;10559163;27;20781;-73
2023/12/20 21:16:36;;;;;;;21.25;4.72;;;10.60;99.90;;;;;;10555609;27;20051;-73
2023/12/20 21:21:39;;;;;;;26.95;4.68;;;10.70;99.90;;;;;;10553785;27;20063;-71
2023/12/20 21:26:43;;;;;;;20.08;3.55;;;10.90;99.90;;;;;;10565305;27;20883;-73
2023/12/20 21:31:45;;;;;;;18.98;4.43;;;10.60;99.90;;;;;;10571723;27;20749;-73
2023/12/20 21:36:48;;;;;;;23.23;5.03;;;10.60;99.90;;;;;;10563010;27;20866;-71
2023/12/20 21:41:52;;;;;;;27.25;4.63;;;10.80;99.90;;;;;;10553620;27;20211;-72
2023/12/20 21:46:54;;;;;;;18.85;3.67;;;10.60;99.90;;;;;;10550354;27;20493;-70
2023/12/20 21:51:57;;;;;;;20.48;3.38;;;10.70;99.90;;;;;;10555364;27;20083;-71
2023/12/20 21:57:01;;;;;;;23.92;5.72;;;10.70;99.90;;;;;;10560476;27;20735;-71
2023/12/20 22:02:03;;;;;;;20.00;4.50;;;10.70;99.90;;;;;;10558996;27;20949;-71
2023/12/20 22:07:05;;;;;;;12.65;2.35;;;10.80;99.90;;;;;;10553573;27;20047;-72
2023/12/20 22:12:09;;;;;;;18.73;4.13;;;10.70;99.90;;;;;;10568265;27;20062;-71
2023/12/20 22:17:11;;;;;;;21.73;4.45;;;10.70;99.90;;;;;;10568381;27;20867;-70
2023/12/20 22:22:14;;;;;;;26.63;4.33;;;10.60;99.90;;;;;;10565114;27;20051;-72
2023/12/20 22:27:17;;;;;;;23.30;4.50;;;10.60;99.90;;;;;;10566410;27;20078;-71
2023/12/20 22:32:21;;;;;;;18.00;4.05;;;10.80;99.90;;;;;;10561354;27;20460;-72
2023/12/20 22:37:23;;;;;;;16.88;3.53;;;10.80;99.90;;;;;;10557727;27;20108;-72
2023/12/20 22:42:26;;;;;;;25.10;4.10;;;10.60;99.90;;;;;;10557080;27;20043;-72
2023/12/20 22:47:28;;;;;;;18.55;4.45;;;10.60;99.90;;;;;;10550781;27;20043;-70
2023/12/20 22:52:31;;;;;;;26.60;5.23;;;10.70;99.90;;;;;;10561539;27;20047;-71
2023/12/20 22:57:35;;;;;;;16.30;2.95;;;10.80;99.90;;;;;;10554943;27;20135;-71
2023/12/20 23:02:39;;;;;;;19.90;2.92;;;10.70;99.90;;;;;;10562828;27;20132;-70
2023/12/20 23:07:41;;;;;;;21.13;3.33;;;10.70;99.90;;;;;;10557220;27;20051;-72
2023/12/20 23:12:45;;;;;;;26.25;4.85;;;10.70;99.90;;;;;;10554398;27;20060;-71
2023/12/20 23:17:49;;;;;;;18.45;3.33;;;10.60;99.90;;;;;;10558884;27;20050;-70
2023/12/20 23:22:51;;;;;;;24.20;4.72;;;10.50;99.90;;;;;;10555105;27;20071;-72
2023/12/20 23:27:54;;;;;;;22.40;3.97;;;10.50;99.90;;;;;;10557272;27;20086;-71
2023/12/20 23:32:57;;;;;;;19.80;4.43;;;10.60;99.90;;;;;;10562405;27;20042;-72
2023/12/20 23:37:59;;;;;;;19.13;3.43;;;10.70;99.90;;;;;;10553951;27;20047;-71
2023/12/20 23:43:03;;;;;;;23.35;4.60;;;10.70;99.90;;;;;;10560504;27;20050;-71
2023/12/20 23:48:05;;;;;;;30.70;3.95;;;10.70;99.90;;;;;;10552814;27;20055;-71
2023/12/20 23:53:07;;;;;;;23.98;3.88;;;10.60;99.90;;;;;;10562306;27;20250;-71
2023/12/20 23:58:11;;;;;;;12.50;2.75;;;10.60;99.90;;;;;;10567221;27;20077;-69
